sensor_id;sensor_type;location;lat;lon;timestamp;temperature;humidity
20803;DHT22;10562;-33.856;151.182;2023-03-20T00:02:28;23.60;99.90
20803;DHT22;10562;-33.856;151.182;2023-03-20T00:04:59;23.50;99.90
20803;DHT22;10562;-33.856;151.182;2023-03-20T00:07:30;23.40;99.90
20803;DHT22;10562;-33.856;151.182;2023-03-20T00:10:01;23.40;99.90
20803;DHT22;10562;-33.856;151.182;2023-03-20T00:12:31;23.30;99.90
20803;DHT22;10562;-33.856;151.182;2023-03-20T00:15:04;23.30;99.90
20803;DHT22;10562;-33.856;151.182;2023-03-20T00:17:38;23.30;99.90
20803;DHT22;10562;-33.856;151.182;2023-03-20T00:20:14;23.10;99.90
20803;DHT22;10562;-33.856;151.182;2023-03-20T00:22:45;23.00;99.90
20803;DHT22;10562;-33.856;151.182;2023-03-20T00:25:16;22.90;99.90
20803;DHT22;10562;-33.856;151.182;2023-03-20T00:27:48;22.90;99.90
20803;DHT22;10562;-33.856;151.182;2023-03-20T00:30:25;22.70;99.90
20803;DHT22;10562;-33.856;151.182;2023-03-20T00:32:58;22.70;99.90
20803;DHT22;10562;-33.856;151.182;2023-03-20T00:35:30;22.50;99.90
20803;DHT22;10562;-33.856;151.182;2023-03-20T00:38:01;22.40;99.90
20803;DHT22;10562;-33.856;151.182;2023-03-20T00:40:32;22.40;99.90
20803;DHT22;10562;-33.856;151.182;2023-03-20T00:43:03;22.40;99.90
20803;DHT22;10562;-33.856;151.182;2023-03-20T00:45:35;22.40;99.90
20803;DHT22;10562;-33.856;151.182;2023-03-20T00:48:12;22.40;99.90
20803;DHT22;10562;-33.856;151.182;2023-03-20T00:50:44;22.30;99.90
20803;DHT22;10562;-33.856;151.182;2023-03-20T00:53:16;22.20;99.90
20803;DHT22;10562;-33.856;151.182;2023-03-20T00:55:46;22.10;99.90
20803;DHT22;10562;-33.856;151.182;2023-03-20T00:58:17;22.10;99.90
20803;DHT22;10562;-33.856;151.182;2023-03-20T01:00:48;22.20;99.90
20803;DHT22;10562;-33.856;151.182;2023-03-20T01:03:23;22.20;99.90
20803;DHT22;10562;-33.856;151.182;2023-03-20T01:05:56;22.10;99.90
20803;DHT22;10562;-33.856;151.182;2023-03-20T01:08:27;22.00;99.90
20803;DHT22;10562;-33.856;151.182;2023-03-20T01:10:58;21.90;99.90
20803;DHT22;10562;-33.856;151.182;2023-03-20T01:13:30;22.00;99.90
20803;DHT22;10562;-33.856;151.182;2023-03-20T01:16:01;22.00;99.90
20803;DHT22;10562;-33.856;151.182;2023-03-20T01:18:34;21.90;99.90
20803;DHT22;10562;-33.856;151.182;2023-03-20T01:21:05;21.90;99.90
20803;DHT22;10562;-33.856;151.182;2023-03-20T01:23:36;22.00;99.90
20803;DHT22;10562;-33.856;151.182;2023-03-20T01:26:17;22.10;99.90
20803;DHT22;10562;-33.856;151.182;2023-03-20T01:28:50;22.20;99.90
20803;DHT22;10562;-33.856;151.182;2023-03-20T01:31:21;22.30;99.90
20803;DHT22;10562;-33.856;151.182;2023-03-20T01:33:53;22.50;99.90
20803;DHT22;10562;-33.856;151.182;2023-03-20T01:36:24;22.60;99.90
20803;DHT22;10562;-33.856;151.182;2023-03-20T01:38:56;22.60;99.90
20803;DHT22;10562;-33.856;151.182;2023-03-20T01:41:27;22.60;99.90
20803;DHT22;10562;-33.856;151.182;2023-03-20T01:44:05;22.60;99.90
20803;DHT22;10562;-33.856;151.182;2023-03-20T01:46:43;22.50;99.90
20803;DHT22;10562;-33.856;151.182;2023-03-20T01:52:21;22.70;99.90
20803;DHT22;10562;-33.856;151.182;2023-03-20T01:54:52;22.80;99.90
20803;DHT22;10562;-33.856;151.182;2023-03-20T01:57:24;22.80;99.90
20803;DHT22;10562;-33.856;151.182;2023-03-20T01:59:58;22.80;99.90
20803;DHT22;10562;-33.856;151.182;2023-03-20T02:02:31;22.80;99.90
20803;DHT22;10562;-33.856;151.182;2023-03-20T02:05:05;22.90;99.90
20803;DHT22;10562;-33.856;151.182;2023-03-20T02:07:39;23.10;99.90
20803;DHT22;10562;-33.856;151.182;2023-03-20T02:10:12;23.40;99.90
20803;DHT22;10562;-33.856;151.182;2023-03-20T02:12:44;23.50;99.90
20803;DHT22;10562;-33.856;151.182;2023-03-20T02:15:17;23.60;99.90
20803;DHT22;10562;-33.856;151.182;2023-03-20T02:17:48;23.70;99.90
20803;DHT22;10562;-33.856;151.182;2023-03-20T02:20:30;23.80;99.90
20803;DHT22;10562;-33.856;151.182;2023-03-20T02:23:31;23.70;99.90
20803;DHT22;10562;-33.856;151.182;2023-03-20T02:26:26;23.80;99.90
20803;DHT22;10562;-33.856;151.182;2023-03-20T02:29:26;23.90;99.90
20803;DHT22;10562;-33.856;151.182;2023-03-20T02:38:22;23.90;99.90
20803;DHT22;10562;-33.856;151.182;2023-03-20T02:41:00;23.90;99.90
20803;DHT22;10562;-33.856;151.182;2023-03-20T02:43:39;23.90;99.90
20803;DHT22;10562;-33.856;151.182;2023-03-20T02:46:16;23.90;99.90
20803;DHT22;10562;-33.856;151.182;2023-03-20T02:48:54;23.80;99.90
20803;DHT22;10562;-33.856;151.182;2023-03-20T02:51:34;23.80;99.90
20803;DHT22;10562;-33.856;151.182;2023-03-20T02:54:12;23.80;99.90
20803;DHT22;10562;-33.856;151.182;2023-03-20T02:56:51;23.80;99.90
20803;DHT22;10562;-33.856;151.182;2023-03-20T02:59:32;23.90;99.90
20803;DHT22;10562;-33.856;151.182;2023-03-20T03:02:08;23.90;99.90
20803;DHT22;10562;-33.856;151.182;2023-03-20T03:04:42;23.80;99.90
20803;DHT22;10562;-33.856;151.182;2023-03-20T03:07:15;23.70;99.90
20803;DHT22;10562;-33.856;151.182;2023-03-20T03:09:53;23.80;99.90
20803;DHT22;10562;-33.856;151.182;2023-03-20T03:12:27;23.80;99.90
20803;DHT22;10562;-33.856;151.182;2023-03-20T03:15:01;23.90;99.90
20803;DHT22;10562;-33.856;151.182;2023-03-20T03:17:35;24.10;99.90
20803;DHT22;10562;-33.856;151.182;2023-03-20T03:20:13;24.10;99.90
20803;DHT22;10562;-33.856;151.182;2023-03-20T03:22:49;24.00;99.90
20803;DHT22;10562;-33.856;151.182;2023-03-20T03:25:24;23.90;99.90
20803;DHT22;10562;-33.856;151.182;2023-03-20T03:28:01;23.90;99.90
20803;DHT22;10562;-33.856;151.182;2023-03-20T03:30:46;23.90;99.90
20803;DHT22;10562;-33.856;151.182;2023-03-20T03:33:20;24.00;99.90
20803;DHT22;10562;-33.856;151.182;2023-03-20T03:35:55;24.10;99.90
20803;DHT22;10562;-33.856;151.182;2023-03-20T03:38:31;24.20;99.90
20803;DHT22;10562;-33.856;151.182;2023-03-20T03:41:16;24.10;99.90
20803;DHT22;10562;-33.856;151.182;2023-03-20T03:43:56;23.80;99.90
20803;DHT22;10562;-33.856;151.182;2023-03-20T03:46:59;23.80;99.90
20803;DHT22;10562;-33.856;151.182;2023-03-20T03:49:36;23.70;99.90
20803;DHT22;10562;-33.856;151.182;2023-03-20T03:52:11;23.70;99.90
20803;DHT22;10562;-33.856;151.182;2023-03-20T03:54:46;23.80;99.90
20803;DHT22;10562;-33.856;151.182;2023-03-20T03:57:26;23.70;99.90
20803;DHT22;10562;-33.856;151.182;2023-03-20T03:59:58;23.60;99.90
20803;DHT22;10562;-33.856;151.182;2023-03-20T04:02:31;23.50;99.90
20803;DHT22;10562;-33.856;151.182;2023-03-20T04:05:03;23.40;99.90
20803;DHT22;10562;-33.856;151.182;2023-03-20T04:07:35;23.40;99.90
20803;DHT22;10562;-33.856;151.182;2023-03-20T04:10:07;23.30;99.90
20803;DHT22;10562;-33.856;151.182;2023-03-20T04:12:40;23.30;99.90
20803;DHT22;10562;-33.856;151.182;2023-03-20T04:15:12;23.30;99.90
20803;DHT22;10562;-33.856;151.182;2023-03-20T04:17:44;23.30;99.90
20803;DHT22;10562;-33.856;151.182;2023-03-20T04:20:15;23.30;99.90
20803;DHT22;10562;-33.856;151.182;2023-03-20T04:22:46;23.20;99.90
20803;DHT22;10562;-33.856;151.182;2023-03-20T04:25:18;23.20;99.90
20803;DHT22;10562;-33.856;151.182;2023-03-20T04:27:52;23.20;99.90
20803;DHT22;10562;-33.856;151.182;2023-03-20T04:30:23;23.20;99.90
20803;DHT22;10562;-33.856;151.182;2023-03-20T04:32:54;23.10;99.90
20803;DHT22;10562;-33.856;151.182;2023-03-20T04:35:25;23.00;99.90
20803;DHT22;10562;-33.856;151.182;2023-03-20T04:37:55;23.00;99.90
20803;DHT22;10562;-33.856;151.182;2023-03-20T04:40:26;23.00;99.90
20803;DHT22;10562;-33.856;151.182;2023-03-20T04:43:00;23.10;99.90
20803;DHT22;10562;-33.856;151.182;2023-03-20T04:45:31;23.10;99.90
20803;DHT22;10562;-33.856;151.182;2023-03-20T04:48:01;23.00;99.90
20803;DHT22;10562;-33.856;151.182;2023-03-20T04:50:32;22.80;99.90
20803;DHT22;10562;-33.856;151.182;2023-03-20T04:53:03;22.60;99.90
20803;DHT22;10562;-33.856;151.182;2023-03-20T04:55:34;22.60;99.90
20803;DHT22;10562;-33.856;151.182;2023-03-20T04:58:07;22.60;99.90
20803;DHT22;10562;-33.856;151.182;2023-03-20T05:00:37;22.70;99.90
20803;DHT22;10562;-33.856;151.182;2023-03-20T05:03:08;22.80;99.90
20803;DHT22;10562;-33.856;151.182;2023-03-20T05:05:39;22.80;99.90
20803;DHT22;10562;-33.856;151.182;2023-03-20T05:08:10;22.90;99.90
20803;DHT22;10562;-33.856;151.182;2023-03-20T05:10:41;22.90;99.90
20803;DHT22;10562;-33.856;151.182;2023-03-20T05:13:13;22.90;99.90
20803;DHT22;10562;-33.856;151.182;2023-03-20T05:15:44;23.00;99.90
20803;DHT22;10562;-33.856;151.182;2023-03-20T05:18:15;22.90;99.90
20803;DHT22;10562;-33.856;151.182;2023-03-20T05:20:47;22.90;99.90
20803;DHT22;10562;-33.856;151.182;2023-03-20T05:23:17;22.90;99.90
20803;DHT22;10562;-33.856;151.182;2023-03-20T05:25:48;22.90;99.90
20803;DHT22;10562;-33.856;151.182;2023-03-20T05:28:21;22.90;99.90
20803;DHT22;10562;-33.856;151.182;2023-03-20T05:30:53;22.80;99.90
20803;DHT22;10562;-33.856;151.182;2023-03-20T05:33:24;22.70;99.90
20803;DHT22;10562;-33.856;151.182;2023-03-20T05:35:55;22.60;99.90
20803;DHT22;10562;-33.856;151.182;2023-03-20T05:38:26;22.60;99.90
20803;DHT22;10562;-33.856;151.182;2023-03-20T05:40:58;22.50;99.90
20803;DHT22;10562;-33.856;151.182;2023-03-20T05:43:31;22.60;99.90
20803;DHT22;10562;-33.856;151.182;2023-03-20T05:46:02;22.60;99.90
20803;DHT22;10562;-33.856;151.182;2023-03-20T05:48:33;22.50;99.90
20803;DHT22;10562;-33.856;151.182;2023-03-20T05:51:04;22.60;99.90
20803;DHT22;10562;-33.856;151.182;2023-03-20T05:53:35;22.60;99.90
20803;DHT22;10562;-33.856;151.182;2023-03-20T05:56:07;22.60;99.90
20803;DHT22;10562;-33.856;151.182;2023-03-20T05:58:40;22.70;99.90
20803;DHT22;10562;-33.856;151.182;2023-03-20T06:01:11;22.70;99.90
20803;DHT22;10562;-33.856;151.182;2023-03-20T06:03:43;22.70;99.90
20803;DHT22;10562;-33.856;151.182;2023-03-20T06:06:13;22.70;99.90
20803;DHT22;10562;-33.856;151.182;2023-03-20T06:08:44;22.70;99.90
20803;DHT22;10562;-33.856;151.182;2023-03-20T06:11:16;22.70;99.90
20803;DHT22;10562;-33.856;151.182;2023-03-20T06:13:49;22.70;99.90
20803;DHT22;10562;-33.856;151.182;2023-03-20T06:16:21;22.60;99.90
20803;DHT22;10562;-33.856;151.182;2023-03-20T06:18:52;22.60;99.90
20803;DHT22;10562;-33.856;151.182;2023-03-20T06:21:23;22.60;99.90
20803;DHT22;10562;-33.856;151.182;2023-03-20T06:23:54;22.60;99.90
20803;DHT22;10562;-33.856;151.182;2023-03-20T06:26:26;22.70;99.90
20803;DHT22;10562;-33.856;151.182;2023-03-20T06:28:59;22.70;99.90
20803;DHT22;10562;-33.856;151.182;2023-03-20T06:31:30;22.70;99.90
20803;DHT22;10562;-33.856;151.182;2023-03-20T06:34:00;22.80;99.90
20803;DHT22;10562;-33.856;151.182;2023-03-20T06:36:31;22.80;99.90
20803;DHT22;10562;-33.856;151.182;2023-03-20T06:39:02;22.80;99.90
20803;DHT22;10562;-33.856;151.182;2023-03-20T06:41:34;22.80;99.90
20803;DHT22;10562;-33.856;151.182;2023-03-20T06:44:08;22.90;99.90
20803;DHT22;10562;-33.856;151.182;2023-03-20T06:46:39;22.90;99.90
20803;DHT22;10562;-33.856;151.182;2023-03-20T06:49:10;22.80;99.90
20803;DHT22;10562;-33.856;151.182;2023-03-20T06:51:41;22.80;99.90
20803;DHT22;10562;-33.856;151.182;2023-03-20T06:54:11;22.80;99.90
20803;DHT22;10562;-33.856;151.182;2023-03-20T06:56:42;22.80;99.90
20803;DHT22;10562;-33.856;151.182;2023-03-20T06:59:15;22.80;99.90
20803;DHT22;10562;-33.856;151.182;2023-03-20T07:01:46;22.80;99.90
20803;DHT22;10562;-33.856;151.182;2023-03-20T07:04:16;22.80;99.90
20803;DHT22;10562;-33.856;151.182;2023-03-20T07:06:47;22.80;99.90
20803;DHT22;10562;-33.856;151.182;2023-03-20T07:09:18;22.70;99.90
20803;DHT22;10562;-33.856;151.182;2023-03-20T07:11:50;22.70;99.90
20803;DHT22;10562;-33.856;151.182;2023-03-20T07:14:23;22.70;99.90
20803;DHT22;10562;-33.856;151.182;2023-03-20T07:16:54;22.60;99.90
20803;DHT22;10562;-33.856;151.182;2023-03-20T07:19:25;22.60;99.90
20803;DHT22;10562;-33.856;151.182;2023-03-20T07:22:02;22.50;99.90
20803;DHT22;10562;-33.856;151.182;2023-03-20T07:24:34;22.50;99.90
20803;DHT22;10562;-33.856;151.182;2023-03-20T07:27:05;22.50;99.90
20803;DHT22;10562;-33.856;151.182;2023-03-20T07:29:37;22.50;99.90
20803;DHT22;10562;-33.856;151.182;2023-03-20T07:32:08;22.50;99.90
20803;DHT22;10562;-33.856;151.182;2023-03-20T07:34:39;22.50;99.90
20803;DHT22;10562;-33.856;151.182;2023-03-20T07:37:10;22.50;99.90
20803;DHT22;10562;-33.856;151.182;2023-03-20T07:39:41;22.40;99.90
20803;DHT22;10562;-33.856;151.182;2023-03-20T07:42:12;22.40;99.90
20803;DHT22;10562;-33.856;151.182;2023-03-20T07:44:44;22.40;99.90
20803;DHT22;10562;-33.856;151.182;2023-03-20T07:47:15;22.40;99.90
20803;DHT22;10562;-33.856;151.182;2023-03-20T07:49:46;22.40;99.90
20803;DHT22;10562;-33.856;151.182;2023-03-20T07:52:17;22.30;99.90
20803;DHT22;10562;-33.856;151.182;2023-03-20T07:54:47;22.30;99.90
20803;DHT22;10562;-33.856;151.182;2023-03-20T07:57:18;22.20;99.90
20803;DHT22;10562;-33.856;151.182;2023-03-20T07:59:51;22.30;99.90
20803;DHT22;10562;-33.856;151.182;2023-03-20T08:02:22;22.20;99.90
20803;DHT22;10562;-33.856;151.182;2023-03-20T08:04:53;22.20;99.90
20803;DHT22;10562;-33.856;151.182;2023-03-20T08:07:24;22.10;99.90
20803;DHT22;10562;-33.856;151.182;2023-03-20T08:09:56;22.10;99.90
20803;DHT22;10562;-33.856;151.182;2023-03-20T08:12:27;22.10;99.90
20803;DHT22;10562;-33.856;151.182;2023-03-20T08:15:00;22.10;99.90
20803;DHT22;10562;-33.856;151.182;2023-03-20T08:17:31;22.10;99.90
20803;DHT22;10562;-33.856;151.182;2023-03-20T08:20:01;22.20;99.90
20803;DHT22;10562;-33.856;151.182;2023-03-20T08:22:33;22.10;99.90
20803;DHT22;10562;-33.856;151.182;2023-03-20T08:25:05;22.10;99.90
20803;DHT22;10562;-33.856;151.182;2023-03-20T08:27:36;22.10;99.90
20803;DHT22;10562;-33.856;151.182;2023-03-20T08:30:10;22.20;99.90
20803;DHT22;10562;-33.856;151.182;2023-03-20T08:32:41;22.20;99.90
20803;DHT22;10562;-33.856;151.182;2023-03-20T08:35:12;22.20;99.90
20803;DHT22;10562;-33.856;151.182;2023-03-20T08:37:43;22.10;99.90
20803;DHT22;10562;-33.856;151.182;2023-03-20T08:40:14;22.10;99.90
20803;DHT22;10562;-33.856;151.182;2023-03-20T08:42:44;22.10;99.90
20803;DHT22;10562;-33.856;151.182;2023-03-20T08:45:17;22.00;99.90
20803;DHT22;10562;-33.856;151.182;2023-03-20T08:47:48;22.00;99.90
20803;DHT22;10562;-33.856;151.182;2023-03-20T08:50:19;21.90;99.90
20803;DHT22;10562;-33.856;151.182;2023-03-20T08:52:50;21.70;99.90
20803;DHT22;10562;-33.856;151.182;2023-03-20T08:55:21;21.60;99.90
20803;DHT22;10562;-33.856;151.182;2023-03-20T08:57:51;21.60;99.90
20803;DHT22;10562;-33.856;151.182;2023-03-20T09:00:26;21.50;99.90
20803;DHT22;10562;-33.856;151.182;2023-03-20T09:02:57;21.40;99.90
20803;DHT22;10562;-33.856;151.182;2023-03-20T09:05:28;21.30;99.90
20803;DHT22;10562;-33.856;151.182;2023-03-20T09:08:00;21.30;99.90
20803;DHT22;10562;-33.856;151.182;2023-03-20T09:10:31;21.30;99.90
20803;DHT22;10562;-33.856;151.182;2023-03-20T09:13:02;21.20;99.90
20803;DHT22;10562;-33.856;151.182;2023-03-20T09:15:35;21.20;99.90
20803;DHT22;10562;-33.856;151.182;2023-03-20T09:18:09;21.20;99.90
20803;DHT22;10562;-33.856;151.182;2023-03-20T09:20:40;21.10;99.90
20803;DHT22;10562;-33.856;151.182;2023-03-20T09:23:11;21.10;99.90
20803;DHT22;10562;-33.856;151.182;2023-03-20T09:25:41;21.10;99.90
20803;DHT22;10562;-33.856;151.182;2023-03-20T09:28:12;21.10;99.90
20803;DHT22;10562;-33.856;151.182;2023-03-20T09:30:45;21.30;99.90
20803;DHT22;10562;-33.856;151.182;2023-03-20T09:33:16;21.40;99.90
20803;DHT22;10562;-33.856;151.182;2023-03-20T09:35:47;21.50;99.90
20803;DHT22;10562;-33.856;151.182;2023-03-20T09:38:18;21.50;99.90
20803;DHT22;10562;-33.856;151.182;2023-03-20T09:40:53;21.50;99.90
20803;DHT22;10562;-33.856;151.182;2023-03-20T09:43:45;21.30;99.90
20803;DHT22;10562;-33.856;151.182;2023-03-20T09:49:35;21.20;99.90
20803;DHT22;10562;-33.856;151.182;2023-03-20T09:52:17;21.10;99.90
20803;DHT22;10562;-33.856;151.182;2023-03-20T09:54:51;21.00;99.90
20803;DHT22;10562;-33.856;151.182;2023-03-20T09:57:24;21.00;99.90
20803;DHT22;10562;-33.856;151.182;2023-03-20T09:59:58;20.90;99.90
20803;DHT22;10562;-33.856;151.182;2023-03-20T10:02:38;20.90;99.90
20803;DHT22;10562;-33.856;151.182;2023-03-20T10:05:18;20.90;99.90
20803;DHT22;10562;-33.856;151.182;2023-03-20T10:07:53;20.90;99.90
20803;DHT22;10562;-33.856;151.182;2023-03-20T10:10:30;20.90;99.90
20803;DHT22;10562;-33.856;151.182;2023-03-20T10:13:18;21.00;99.90
20803;DHT22;10562;-33.856;151.182;2023-03-20T10:15:55;21.10;99.90
20803;DHT22;10562;-33.856;151.182;2023-03-20T10:18:34;21.10;99.90
20803;DHT22;10562;-33.856;151.182;2023-03-20T10:21:13;21.10;99.90
20803;DHT22;10562;-33.856;151.182;2023-03-20T10:23:52;21.10;99.90
20803;DHT22;10562;-33.856;151.182;2023-03-20T10:26:27;21.10;99.90
20803;DHT22;10562;-33.856;151.182;2023-03-20T10:29:00;21.20;99.90
20803;DHT22;10562;-33.856;151.182;2023-03-20T10:31:37;21.20;99.90
20803;DHT22;10562;-33.856;151.182;2023-03-20T10:34:23;21.20;99.90
20803;DHT22;10562;-33.856;151.182;2023-03-20T10:37:07;21.30;99.90
20803;DHT22;10562;-33.856;151.182;2023-03-20T10:39:50;21.20;99.90
20803;DHT22;10562;-33.856;151.182;2023-03-20T10:42:26;21.20;99.90
20803;DHT22;10562;-33.856;151.182;2023-03-20T10:45:03;21.10;99.90
20803;DHT22;10562;-33.856;151.182;2023-03-20T10:47:37;21.10;99.90
20803;DHT22;10562;-33.856;151.182;2023-03-20T10:50:15;20.90;99.90
20803;DHT22;10562;-33.856;151.182;2023-03-20T10:52:50;20.80;99.90
20803;DHT22;10562;-33.856;151.182;2023-03-20T10:55:23;20.80;99.90
20803;DHT22;10562;-33.856;151.182;2023-03-20T10:57:58;20.60;99.90
20803;DHT22;10562;-33.856;151.182;2023-03-20T11:00:31;20.60;99.90
20803;DHT22;10562;-33.856;151.182;2023-03-20T11:03:02;20.60;99.90
20803;DHT22;10562;-33.856;151.182;2023-03-20T11:05:36;20.70;99.90
20803;DHT22;10562;-33.856;151.182;2023-03-20T11:08:10;20.70;99.90
20803;DHT22;10562;-33.856;151.182;2023-03-20T11:10:42;20.70;99.90
20803;DHT22;10562;-33.856;151.182;2023-03-20T11:13:15;20.60;99.90
20803;DHT22;10562;-33.856;151.182;2023-03-20T11:15:46;20.60;99.90
20803;DHT22;10562;-33.856;151.182;2023-03-20T11:18:17;20.60;99.90
20803;DHT22;10562;-33.856;151.182;2023-03-20T11:20:51;20.60;99.90
20803;DHT22;10562;-33.856;151.182;2023-03-20T11:23:26;20.50;99.90
20803;DHT22;10562;-33.856;151.182;2023-03-20T11:25:58;20.40;99.90
20803;DHT22;10562;-33.856;151.182;2023-03-20T11:28:35;20.40;99.90
20803;DHT22;10562;-33.856;151.182;2023-03-20T11:31:13;20.40;99.90
20803;DHT22;10562;-33.856;151.182;2023-03-20T11:33:49;20.40;99.90
20803;DHT22;10562;-33.856;151.182;2023-03-20T11:36:27;20.40;99.90
20803;DHT22;10562;-33.856;151.182;2023-03-20T11:39:04;20.40;99.90
20803;DHT22;10562;-33.856;151.182;2023-03-20T11:41:41;20.30;99.90
20803;DHT22;10562;-33.856;151.182;2023-03-20T11:44:24;20.30;99.90
20803;DHT22;10562;-33.856;151.182;2023-03-20T11:46:56;20.30;99.90
20803;DHT22;10562;-33.856;151.182;2023-03-20T11:49:28;20.40;99.90
20803;DHT22;10562;-33.856;151.182;2023-03-20T11:52:10;20.40;99.90
20803;DHT22;10562;-33.856;151.182;2023-03-20T11:54:47;20.40;99.90
20803;DHT22;10562;-33.856;151.182;2023-03-20T11:57:32;20.40;99.90
20803;DHT22;10562;-33.856;151.182;2023-03-20T12:00:15;20.50;99.90
20803;DHT22;10562;-33.856;151.182;2023-03-20T12:02:47;20.50;99.90
20803;DHT22;10562;-33.856;151.182;2023-03-20T12:05:30;20.50;99.90
20803;DHT22;10562;-33.856;151.182;2023-03-20T12:08:08;20.40;99.90
20803;DHT22;10562;-33.856;151.182;2023-03-20T12:10:45;20.40;99.90
20803;DHT22;10562;-33.856;151.182;2023-03-20T12:13:20;20.30;99.90
20803;DHT22;10562;-33.856;151.182;2023-03-20T12:15:56;20.30;99.90
20803;DHT22;10562;-33.856;151.182;2023-03-20T12:18:31;20.20;99.90
20803;DHT22;10562;-33.856;151.182;2023-03-20T12:21:08;20.20;99.90
20803;DHT22;10562;-33.856;151.182;2023-03-20T12:23:44;20.10;99.90
20803;DHT22;10562;-33.856;151.182;2023-03-20T12:26:20;20.10;99.90
20803;DHT22;10562;-33.856;151.182;2023-03-20T12:28:57;20.10;99.90
20803;DHT22;10562;-33.856;151.182;2023-03-20T12:31:34;20.10;99.90
20803;DHT22;10562;-33.856;151.182;2023-03-20T12:34:08;20.10;99.90
20803;DHT22;10562;-33.856;151.182;2023-03-20T12:36:42;20.20;99.90
20803;DHT22;10562;-33.856;151.182;2023-03-20T12:39:16;20.10;99.90
20803;DHT22;10562;-33.856;151.182;2023-03-20T12:41:59;20.20;99.90
20803;DHT22;10562;-33.856;151.182;2023-03-20T12:44:39;20.10;99.90
20803;DHT22;10562;-33.856;151.182;2023-03-20T12:47:37;20.10;99.90
20803;DHT22;10562;-33.856;151.182;2023-03-20T12:50:18;20.10;99.90
20803;DHT22;10562;-33.856;151.182;2023-03-20T12:53:00;20.10;99.90
20803;DHT22;10562;-33.856;151.182;2023-03-20T12:55:43;20.00;99.90
20803;DHT22;10562;-33.856;151.182;2023-03-20T12:58:22;20.10;99.90
20803;DHT22;10562;-33.856;151.182;2023-03-20T13:01:00;20.00;99.90
20803;DHT22;10562;-33.856;151.182;2023-03-20T13:03:46;20.00;99.90
20803;DHT22;10562;-33.856;151.182;2023-03-20T13:06:27;19.90;99.90
20803;DHT22;10562;-33.856;151.182;2023-03-20T13:09:26;19.90;99.90
20803;DHT22;10562;-33.856;151.182;2023-03-20T13:12:07;19.90;99.90
20803;DHT22;10562;-33.856;151.182;2023-03-20T13:14:47;19.90;99.90
20803;DHT22;10562;-33.856;151.182;2023-03-20T13:17:23;19.80;99.90
20803;DHT22;10562;-33.856;151.182;2023-03-20T13:20:17;19.70;99.90
20803;DHT22;10562;-33.856;151.182;2023-03-20T13:26:03;19.60;99.90
20803;DHT22;10562;-33.856;151.182;2023-03-20T13:28:44;19.60;99.90
20803;DHT22;10562;-33.856;151.182;2023-03-20T13:31:27;19.60;99.90
20803;DHT22;10562;-33.856;151.182;2023-03-20T13:34:04;19.50;99.90
20803;DHT22;10562;-33.856;151.182;2023-03-20T13:36:46;19.60;99.90
20803;DHT22;10562;-33.856;151.182;2023-03-20T13:39:21;19.70;99.90
20803;DHT22;10562;-33.856;151.182;2023-03-20T13:41:55;19.70;99.90
20803;DHT22;10562;-33.856;151.182;2023-03-20T13:44:29;19.60;99.90
20803;DHT22;10562;-33.856;151.182;2023-03-20T13:47:04;19.60;99.90
20803;DHT22;10562;-33.856;151.182;2023-03-20T13:49:36;19.60;99.90
20803;DHT22;10562;-33.856;151.182;2023-03-20T13:52:09;19.70;99.90
20803;DHT22;10562;-33.856;151.182;2023-03-20T13:55:04;19.70;99.90
20803;DHT22;10562;-33.856;151.182;2023-03-20T13:58:05;19.70;99.90
20803;DHT22;10562;-33.856;151.182;2023-03-20T14:00:44;19.80;99.90
20803;DHT22;10562;-33.856;151.182;2023-03-20T14:03:23;19.90;99.90
20803;DHT22;10562;-33.856;151.182;2023-03-20T14:05:55;19.90;99.90
20803;DHT22;10562;-33.856;151.182;2023-03-20T14:08:35;19.90;99.90
20803;DHT22;10562;-33.856;151.182;2023-03-20T14:11:15;19.80;99.90
20803;DHT22;10562;-33.856;151.182;2023-03-20T14:14:04;19.80;99.90
20803;DHT22;10562;-33.856;151.182;2023-03-20T14:16:38;19.80;99.90
20803;DHT22;10562;-33.856;151.182;2023-03-20T14:19:16;19.80;99.90
20803;DHT22;10562;-33.856;151.182;2023-03-20T14:21:48;19.90;99.90
20803;DHT22;10562;-33.856;151.182;2023-03-20T14:24:21;19.90;99.90
20803;DHT22;10562;-33.856;151.182;2023-03-20T14:26:56;19.90;99.90
20803;DHT22;10562;-33.856;151.182;2023-03-20T14:29:45;19.80;99.90
20803;DHT22;10562;-33.856;151.182;2023-03-20T14:32:34;19.70;99.90
20803;DHT22;10562;-33.856;151.182;2023-03-20T14:35:23;19.50;99.90
20803;DHT22;10562;-33.856;151.182;2023-03-20T14:38:12;19.40;99.90
20803;DHT22;10562;-33.856;151.182;2023-03-20T14:40:51;19.30;99.90
20803;DHT22;10562;-33.856;151.182;2023-03-20T14:43:38;19.20;99.90
20803;DHT22;10562;-33.856;151.182;2023-03-20T14:46:18;19.10;99.90
20803;DHT22;10562;-33.856;151.182;2023-03-20T14:48:54;19.00;99.90
20803;DHT22;10562;-33.856;151.182;2023-03-20T14:51:30;18.80;99.90
20803;DHT22;10562;-33.856;151.182;2023-03-20T14:54:23;18.80;99.90
20803;DHT22;10562;-33.856;151.182;2023-03-20T14:56:55;18.70;99.90
20803;DHT22;10562;-33.856;151.182;2023-03-20T14:59:37;18.70;99.90
20803;DHT22;10562;-33.856;151.182;2023-03-20T15:02:24;18.70;99.90
20803;DHT22;10562;-33.856;151.182;2023-03-20T15:04:58;18.60;99.90
20803;DHT22;10562;-33.856;151.182;2023-03-20T15:07:30;18.60;99.90
20803;DHT22;10562;-33.856;151.182;2023-03-20T15:10:05;18.60;99.90
20803;DHT22;10562;-33.856;151.182;2023-03-20T15:12:37;18.70;99.90
20803;DHT22;10562;-33.856;151.182;2023-03-20T15:15:22;18.70;99.90
20803;DHT22;10562;-33.856;151.182;2023-03-20T15:17:53;18.70;99.90
20803;DHT22;10562;-33.856;151.182;2023-03-20T15:20:27;18.80;99.90
20803;DHT22;10562;-33.856;151.182;2023-03-20T15:22:59;18.80;99.90
20803;DHT22;10562;-33.856;151.182;2023-03-20T15:25:32;18.70;99.90
20803;DHT22;10562;-33.856;151.182;2023-03-20T15:28:06;18.70;99.90
20803;DHT22;10562;-33.856;151.182;2023-03-20T15:30:38;18.50;99.90
20803;DHT22;10562;-33.856;151.182;2023-03-20T15:33:16;18.50;99.90
20803;DHT22;10562;-33.856;151.182;2023-03-20T15:35:50;18.50;99.90
20803;DHT22;10562;-33.856;151.182;2023-03-20T15:38:21;18.50;99.90
20803;DHT22;10562;-33.856;151.182;2023-03-20T15:40:52;18.50;99.90
20803;DHT22;10562;-33.856;151.182;2023-03-20T15:43:23;18.60;99.90
20803;DHT22;10562;-33.856;151.182;2023-03-20T15:45:55;18.70;99.90
20803;DHT22;10562;-33.856;151.182;2023-03-20T15:48:26;18.70;99.90
20803;DHT22;10562;-33.856;151.182;2023-03-20T15:51:01;18.70;99.90